createdAt,value
2019-04-11T00:00:57.576Z,101845.08
2019-04-11T00:01:57.027Z,101845.84
2019-04-11T00:02:58.699Z,101846.14
2019-04-11T00:03:59.864Z,101847.21
2019-04-11T00:04:58.942Z,101847.56
2019-04-11T00:05:59.930Z,101848.00
2019-04-11T00:07:00.387Z,101848.59
2019-04-11T00:07:09.445Z,101861.53
2019-04-11T00:08:12.103Z,101861.31
2019-04-11T00:09:10.845Z,101861.14
2019-04-11T00:10:12.421Z,101861.22
2019-04-11T00:11:11.949Z,101860.97
2019-04-11T00:12:14.517Z,101861.16
2019-04-11T00:13:21.114Z,101860.83
2019-04-11T00:14:13.820Z,101860.84
2019-04-11T00:15:13.938Z,101860.42
2019-04-11T00:16:15.614Z,101860.37
2019-04-11T00:17:17.283Z,101860.12
2019-04-11T00:18:16.625Z,101860.34
2019-04-11T00:19:16.447Z,101860.00
2019-04-11T00:20:18.149Z,101859.86
2019-04-11T00:21:18.961Z,101859.78
2019-04-11T00:22:19.561Z,101859.96
2019-04-11T00:23:20.254Z,101860.06
2019-04-11T00:24:20.906Z,101860.33
2019-04-11T00:25:21.445Z,101860.14
2019-04-11T00:26:22.187Z,101860.17
2019-04-11T00:27:21.245Z,101859.98
2019-04-11T00:28:21.871Z,101860.77
2019-04-11T00:29:23.549Z,101860.92
2019-04-11T00:30:24.205Z,101860.94
2019-04-11T00:31:25.137Z,101861.47
2019-04-11T00:32:25.391Z,101861.55
2019-04-11T00:33:26.441Z,101861.83
2019-04-11T00:34:26.877Z,101862.03
2019-04-11T00:35:27.919Z,101862.47
2019-04-11T00:36:28.414Z,101862.32
2019-04-11T00:37:27.610Z,101862.51
2019-04-11T00:38:29.964Z,101862.36
2019-04-11T00:39:29.852Z,101862.20
2019-04-11T00:40:29.615Z,101862.23
2019-04-11T00:41:32.269Z,101862.02
2019-04-11T00:42:30.994Z,101862.03
2019-04-11T00:43:37.670Z,101861.96
2019-04-11T00:44:32.815Z,101862.00
2019-04-11T00:45:33.921Z,101862.20
2019-04-11T00:46:34.197Z,101861.88
2019-04-11T00:47:35.241Z,101861.72
2019-04-11T00:48:35.589Z,101861.27
2019-04-11T00:49:36.661Z,101861.50
2019-04-11T00:50:37.263Z,101861.44
2019-04-11T00:51:38.133Z,101861.63
2019-04-11T00:52:39.136Z,101861.90
2019-04-11T00:53:38.756Z,101861.92
2019-04-11T00:54:40.716Z,101861.95
2019-04-11T00:55:39.903Z,101862.45
2019-04-11T00:56:40.639Z,101862.72
2019-04-11T00:57:43.237Z,101863.59
2019-04-11T00:58:42.169Z,101863.77
2019-04-11T00:59:44.680Z,101863.70
2019-04-11T01:00:43.208Z,101864.03
2019-04-11T01:01:44.992Z,101864.30
2019-04-11T01:02:45.428Z,101864.67
2019-04-11T01:03:45.412Z,101865.09
2019-04-11T01:04:45.855Z,101865.19
2019-04-11T01:05:47.846Z,101865.55
2019-04-11T01:06:46.951Z,101866.05
2019-04-11T01:07:49.206Z,101866.16
2019-04-11T01:08:48.301Z,101866.52
2019-04-11T01:09:50.606Z,101866.77
2019-04-11T01:10:49.733Z,101867.02
2019-04-11T01:11:50.125Z,101867.19
2019-04-11T01:12:51.660Z,101867.70
2019-04-11T01:13:55.302Z,101867.80
2019-04-11T01:14:53.158Z,101868.16
2019-04-11T01:15:52.890Z,101868.33
2019-04-11T01:16:54.826Z,101868.76
2019-04-11T01:17:54.518Z,101868.93
2019-04-11T01:18:55.939Z,101869.10
2019-04-11T01:19:57.374Z,101869.53
2019-04-11T01:20:56.293Z,101869.70
2019-04-11T01:21:59.456Z,101869.95
2019-04-11T01:22:58.462Z,101870.05
2019-04-11T01:23:58.210Z,101870.55
2019-04-11T01:24:59.920Z,101870.83
2019-04-11T01:25:59.421Z,101871.10
2019-04-11T01:26:09.464Z,101875.21
2019-04-11T01:27:09.953Z,101875.13
2019-04-11T01:28:12.208Z,101875.38
2019-04-11T01:29:11.329Z,101875.29
2019-04-11T01:30:11.766Z,101875.06
2019-04-11T01:31:12.001Z,101875.22
2019-04-11T01:32:13.959Z,101875.31
2019-04-11T01:33:13.415Z,101875.91
2019-04-11T01:34:16.159Z,101876.32
2019-04-11T01:35:15.235Z,101876.34
2019-04-11T01:36:15.139Z,101875.98
2019-04-11T01:37:15.681Z,101875.92
2019-04-11T01:38:17.249Z,101876.27
2019-04-11T01:39:17.708Z,101877.09
2019-04-11T01:40:18.418Z,101877.60
2019-04-11T01:41:18.885Z,101878.11
2019-04-11T01:42:19.575Z,101878.47
2019-04-11T01:43:19.855Z,101879.12
2019-04-11T01:44:20.546Z,101879.51
2019-04-11T01:45:21.160Z,101880.09
2019-04-11T01:46:20.673Z,101880.87
2019-04-11T01:47:22.641Z,101880.97
2019-04-11T01:48:23.709Z,101881.66
2019-04-11T01:49:22.611Z,101881.83
2019-04-11T01:50:25.156Z,101882.09
2019-04-11T01:51:23.977Z,101882.81
2019-04-11T01:52:26.522Z,101883.48
2019-04-11T01:53:25.016Z,101884.31
2019-04-11T01:54:27.943Z,101884.67
2019-04-11T01:55:26.284Z,101885.34
2019-04-11T01:56:28.060Z,101885.88
2019-04-11T01:57:29.725Z,101886.21
2019-04-11T01:58:28.897Z,101887.31
2019-04-11T01:59:29.135Z,101888.44
2019-04-11T02:00:30.171Z,101889.42
2019-04-11T02:01:30.609Z,101890.05
2019-04-11T02:02:31.045Z,101890.72
2019-04-11T02:03:33.066Z,101891.19
2019-04-11T02:04:32.444Z,101891.88
2019-04-11T02:05:35.003Z,101892.45
2019-04-11T02:06:34.124Z,101893.37
2019-04-11T02:07:34.372Z,101893.98
2019-04-11T02:08:35.531Z,101895.05
2019-04-11T02:09:35.923Z,101895.39
2019-04-11T02:10:37.052Z,101895.38
2019-04-11T02:11:37.334Z,101895.66
2019-04-11T02:12:37.480Z,101896.23
2019-04-11T02:13:39.697Z,101896.92
2019-04-11T02:14:39.657Z,101897.73
2019-04-11T02:15:40.729Z,101898.41
2019-04-11T02:16:41.122Z,101899.25
2019-04-11T02:17:41.184Z,101899.84
2019-04-11T02:18:41.649Z,101900.67
2019-04-11T02:19:43.340Z,101901.52
2019-04-11T02:20:43.863Z,101902.95
2019-04-11T02:21:44.380Z,101904.14
2019-04-11T02:22:44.839Z,101904.28
2019-04-11T02:23:45.566Z,101905.45
2019-04-11T02:24:45.009Z,101906.62
2019-04-11T02:25:47.070Z,101907.87
2019-04-11T02:26:47.237Z,101908.66
2019-04-11T02:27:46.535Z,101909.90
2019-04-11T02:28:48.793Z,101910.83
2019-04-11T02:29:48.815Z,101911.31
2019-04-11T02:30:48.681Z,101912.00
2019-04-11T02:31:50.609Z,101913.08
2019-04-11T02:32:49.882Z,101914.09
2019-04-11T02:33:51.122Z,101914.92
2019-04-11T02:34:52.256Z,101915.44
2019-04-11T02:35:51.874Z,101916.25
2019-04-11T02:36:53.575Z,101917.17
2019-04-11T02:37:52.638Z,101917.78
2019-04-11T02:38:57.490Z,101918.62
2019-04-11T02:39:54.147Z,101919.12
2019-04-11T02:40:55.138Z,101920.36
2019-04-11T02:41:54.908Z,101921.48
2019-04-11T02:42:55.070Z,101921.80
2019-04-11T02:43:57.483Z,101922.63
2019-04-11T02:45:13.765Z,101923.30
2019-04-11T02:46:10.019Z,101923.65
2019-04-11T02:47:05.557Z,101924.50
2019-04-11T02:47:59.400Z,101925.08
2019-04-11T02:49:00.887Z,101925.99
2019-04-11T02:49:59.217Z,101926.59
2019-04-11T02:51:00.987Z,101927.16
2019-04-11T02:52:00.857Z,101928.42
2019-04-11T02:53:00.904Z,101929.42
2019-04-11T02:54:02.244Z,101930.26
2019-04-11T02:55:03.408Z,101930.93
2019-04-11T02:56:02.776Z,101932.11
2019-04-11T02:57:03.169Z,101932.95
2019-04-11T02:58:04.000Z,101934.20
2019-04-11T02:59:05.147Z,101934.97
2019-04-11T02:59:13.469Z,101948.77
2019-04-11T03:00:13.408Z,101948.67
2019-04-11T03:01:15.592Z,101949.00
2019-04-11T03:02:17.517Z,101949.45
2019-04-11T03:03:17.302Z,101949.84
2019-04-11T03:04:16.693Z,101949.77
2019-04-11T03:05:18.267Z,101949.77
2019-04-11T03:06:17.524Z,101950.44
2019-04-11T03:07:17.604Z,101950.77
2019-04-11T03:08:20.157Z,101950.45
2019-04-11T03:09:19.741Z,101950.53
2019-04-11T03:10:20.900Z,101950.51
2019-04-11T03:11:21.390Z,101950.86
2019-04-11T03:12:21.673Z,101950.61
2019-04-11T03:13:21.154Z,101950.93
2019-04-11T03:14:21.346Z,101951.78
2019-04-11T03:15:39.228Z,101952.19
2019-04-11T03:16:35.467Z,101952.77
2019-04-11T03:17:30.604Z,101952.61
2019-04-11T03:18:40.917Z,101952.93
2019-04-11T03:19:40.342Z,101953.69
2019-04-11T03:20:33.816Z,101954.19
2019-04-11T03:21:26.883Z,101954.61
2019-04-11T03:22:26.937Z,101955.35
2019-04-11T03:23:27.844Z,101955.53
2019-04-11T03:24:28.699Z,101956.19
2019-04-11T03:25:28.355Z,101956.95
2019-04-11T03:26:29.171Z,101957.77
2019-04-11T03:27:30.390Z,101958.55
2019-04-11T03:28:31.365Z,101958.97
2019-04-11T03:29:31.466Z,101959.45
2019-04-11T03:30:49.415Z,101959.80
2019-04-11T03:32:13.975Z,101959.97
2019-04-11T03:33:17.035Z,101960.63
2019-04-11T03:36:22.179Z,101962.80
2019-04-11T03:37:13.867Z,101963.47
2019-04-11T03:38:00.106Z,101964.30
2019-04-11T03:38:53.552Z,101964.70
2019-04-11T03:39:56.424Z,101965.62
2019-04-11T03:40:57.911Z,101966.45
2019-04-11T03:41:52.024Z,101967.38
2019-04-11T03:42:50.415Z,101968.38
2019-04-11T03:43:53.051Z,101969.55
2019-04-11T03:44:46.330Z,101970.13
2019-04-11T03:45:58.672Z,101971.53
2019-04-11T03:46:52.682Z,101972.64
2019-04-11T03:47:59.135Z,101973.12
2019-04-11T03:48:52.259Z,101974.22
2019-04-11T03:49:49.206Z,101975.72
2019-04-11T03:50:42.634Z,101976.55
2019-04-11T03:51:43.674Z,101977.95
2019-04-11T03:52:44.746Z,101979.29
2019-04-11T03:53:44.977Z,101980.56
2019-04-11T03:54:45.548Z,101981.38
2019-04-11T03:55:45.631Z,101982.81
2019-04-11T03:56:45.957Z,101983.88
2019-04-11T03:57:47.095Z,101984.80
2019-04-11T03:58:48.276Z,101986.36
2019-04-11T03:59:48.063Z,101987.56
2019-04-11T04:00:50.768Z,101988.63
2019-04-11T04:01:50.706Z,101989.63
2019-04-11T04:02:49.723Z,101990.81
2019-04-11T04:03:53.414Z,101992.13
2019-04-11T04:04:51.846Z,101993.63
2019-04-11T04:05:52.834Z,101995.20
2019-04-11T04:06:52.921Z,101996.88
2019-04-11T04:07:55.240Z,101998.03
2019-04-11T04:08:55.513Z,101999.63
2019-04-11T04:09:54.709Z,102000.94
2019-04-11T04:10:56.347Z,102002.20
2019-04-11T04:11:56.880Z,102002.93
2019-04-11T04:12:58.197Z,102004.69
2019-04-11T04:13:58.969Z,102005.52
2019-04-11T04:14:59.190Z,102006.59
2019-04-11T04:16:08.119Z,102006.94
2019-04-11T04:17:01.661Z,102008.41
2019-04-11T04:18:00.089Z,102009.41
2019-04-11T04:19:01.679Z,102010.23
2019-04-11T04:20:02.212Z,102011.17
2019-04-11T04:21:01.878Z,102011.83
2019-04-11T04:22:03.025Z,102012.88
2019-04-11T04:23:03.150Z,102014.48
2019-04-11T04:24:04.055Z,102015.48
2019-04-11T04:25:04.368Z,102016.81
2019-04-11T04:26:07.325Z,102018.21
2019-04-11T04:27:07.063Z,102018.89
2019-04-11T04:28:07.086Z,102019.63
2019-04-11T04:29:07.378Z,102020.46
2019-04-11T04:30:06.268Z,102021.77
2019-04-11T04:31:09.712Z,102023.20
2019-04-11T04:32:08.389Z,102024.34
2019-04-11T04:33:10.061Z,102025.35
2019-04-11T04:34:09.408Z,102026.59
2019-04-11T04:35:11.530Z,102027.91
2019-04-11T04:36:11.028Z,102028.42
2019-04-11T04:37:09.396Z,102029.97
2019-04-11T04:38:11.367Z,102031.33
2019-04-11T04:39:10.745Z,102032.48
2019-04-11T04:40:26.939Z,102033.55
2019-04-11T04:41:22.429Z,102034.88
2019-04-11T04:42:21.871Z,102035.20
2019-04-11T04:43:14.484Z,102036.27
2019-04-11T04:44:14.431Z,102037.61
2019-04-11T04:45:16.116Z,102038.58
2019-04-11T04:46:30.003Z,102040.18
2019-04-11T04:47:23.745Z,102041.01
2019-04-11T04:48:18.838Z,102042.59
2019-04-11T04:49:16.401Z,102043.59
2019-04-11T04:50:18.273Z,102044.73
2019-04-11T04:51:19.882Z,102046.08
2019-04-11T04:52:18.844Z,102047.56
2019-04-11T04:53:20.248Z,102049.05
2019-04-11T04:54:19.908Z,102050.21
2019-04-11T04:55:21.485Z,102051.55
2019-04-11T04:56:26.050Z,102053.13
2019-04-11T04:57:21.267Z,102054.63
2019-04-11T04:58:24.345Z,102055.64
2019-04-11T04:59:23.686Z,102056.89
2019-04-11T05:00:23.421Z,102058.55
2019-04-11T05:01:23.812Z,102059.81
2019-04-11T05:02:24.627Z,102060.97
2019-04-11T05:03:26.157Z,102062.40
2019-04-11T05:04:25.046Z,102063.47
2019-04-11T05:05:26.697Z,102064.55
2019-04-11T05:06:28.078Z,102066.32
2019-04-11T05:07:30.410Z,102067.80
2019-04-11T05:08:27.769Z,102069.08
2019-04-11T05:09:29.877Z,102069.98
2019-04-11T05:10:30.450Z,102071.39
2019-04-11T05:11:30.561Z,102072.22
2019-04-11T05:12:30.296Z,102073.55
2019-04-11T05:13:32.208Z,102074.73
2019-04-11T05:14:31.733Z,102075.48
2019-04-11T05:15:32.488Z,102076.38
2019-04-11T05:16:33.311Z,102077.22
2019-04-11T05:17:34.510Z,102078.14
2019-04-11T05:18:34.237Z,102078.31
2019-04-11T05:19:34.463Z,102079.31
2019-04-11T05:20:36.415Z,102080.22
2019-04-11T05:21:35.862Z,102081.05
2019-04-11T05:22:37.361Z,102082.05
2019-04-11T05:22:47.159Z,102099.08
2019-04-11T05:23:46.039Z,102098.31
2019-04-11T05:24:47.527Z,102098.30
2019-04-11T05:25:47.314Z,102098.42
2019-04-11T05:26:50.221Z,102098.58
2019-04-11T05:27:49.593Z,102098.67
2019-04-11T05:28:48.922Z,102098.67
2019-04-11T05:29:51.586Z,102098.93
2019-04-11T05:30:51.231Z,102099.25
2019-04-11T05:31:51.156Z,102099.34
2019-04-11T05:32:51.397Z,102100.35
2019-04-11T05:33:51.871Z,102100.44
2019-04-11T05:34:53.089Z,102101.34
2019-04-11T05:35:54.187Z,102101.63
2019-04-11T05:36:53.994Z,102102.36
2019-04-11T05:37:55.861Z,102103.23
2019-04-11T05:38:55.362Z,102104.06
2019-04-11T05:39:57.010Z,102104.09
2019-04-11T05:40:58.500Z,102104.75
2019-04-11T05:41:58.672Z,102105.84
2019-04-11T05:42:58.078Z,102106.51
2019-04-11T05:44:03.435Z,102107.20
2019-04-11T05:44:59.261Z,102108.31
2019-04-11T05:46:00.277Z,102109.05
2019-04-11T05:47:02.596Z,102110.16
2019-04-11T05:48:01.331Z,102110.75
2019-04-11T05:49:03.839Z,102111.09
2019-04-11T05:50:07.628Z,102111.86
2019-04-11T05:51:04.492Z,102112.09
2019-04-11T05:52:04.139Z,102113.20
2019-04-11T05:53:05.907Z,102114.53
2019-04-11T05:54:08.831Z,102115.63
2019-04-11T05:55:08.290Z,102116.63
2019-04-11T05:56:07.128Z,102118.08
2019-04-11T05:57:07.119Z,102118.94
2019-04-11T05:58:12.812Z,102119.94
2019-04-11T05:59:09.376Z,102120.83
2019-04-11T06:00:09.684Z,102121.13
2019-04-11T06:01:11.757Z,102121.52
2019-04-11T06:02:11.039Z,102121.56
2019-04-11T06:03:10.703Z,102121.89
2019-04-11T06:04:15.373Z,102121.78
2019-04-11T06:05:11.462Z,102121.59
2019-04-11T06:06:13.049Z,102121.65
2019-04-11T06:07:13.722Z,102121.92
2019-04-11T06:08:21.155Z,102122.28
2019-04-11T06:09:16.123Z,102122.53
2019-04-11T06:10:14.824Z,102122.81
2019-04-11T06:11:19.299Z,102122.30
2019-04-11T06:12:17.161Z,102122.70
2019-04-11T06:13:16.685Z,102122.28
2019-04-11T06:14:19.411Z,102122.44
2019-04-11T06:15:19.942Z,102122.41
2019-04-11T06:16:18.793Z,102121.93
2019-04-11T06:17:18.798Z,102122.28
2019-04-11T06:18:26.908Z,102122.94
2019-04-11T06:19:20.673Z,102123.06
2019-04-11T06:20:20.341Z,102123.08
2019-04-11T06:21:22.278Z,102123.19
2019-04-11T06:22:23.416Z,102123.56
2019-04-11T06:23:23.371Z,102123.25
2019-04-11T06:24:23.833Z,102124.11
2019-04-11T06:25:23.604Z,102124.06
2019-04-11T06:26:24.816Z,102124.35
2019-04-11T06:27:24.663Z,102123.77
2019-04-11T06:28:27.192Z,102123.51
2019-04-11T06:29:26.803Z,102123.48
2019-04-11T06:30:26.451Z,102123.45
2019-04-11T06:31:26.502Z,102123.67
2019-04-11T06:32:28.239Z,102123.48
2019-04-11T06:33:29.019Z,102123.62
2019-04-11T06:34:30.430Z,102123.84
2019-04-11T06:35:30.241Z,102123.54
2019-04-11T06:36:30.139Z,102123.93
2019-04-11T06:37:30.447Z,102123.77
2019-04-11T06:38:32.457Z,102123.57
2019-04-11T06:39:31.534Z,102123.56
2019-04-11T06:40:32.661Z,102123.45
2019-04-11T06:41:32.833Z,102123.63
2019-04-11T06:42:33.041Z,102123.55
2019-04-11T06:43:34.708Z,102123.92
2019-04-11T06:44:35.558Z,102123.86
2019-04-11T06:45:37.681Z,102123.94
2019-04-11T06:46:47.588Z,102123.72
2019-04-11T06:47:37.292Z,102124.04
2019-04-11T06:48:40.025Z,102124.30
2019-04-11T06:49:38.526Z,102124.06
2019-04-11T06:50:39.634Z,102124.28
2019-04-11T06:51:39.863Z,102124.25
2019-04-11T06:52:41.220Z,102124.50
2019-04-11T06:53:42.066Z,102124.87
2019-04-11T06:54:41.463Z,102124.70
2019-04-11T06:55:42.671Z,102124.50
2019-04-11T06:56:43.323Z,102124.42
2019-04-11T06:57:43.093Z,102124.41
2019-04-11T06:58:45.728Z,102124.13
2019-04-11T06:58:54.150Z,102126.05
2019-04-11T06:59:53.872Z,102125.78
2019-04-11T07:00:55.778Z,102125.70
2019-04-11T07:01:55.060Z,102125.60
2019-04-11T07:02:55.394Z,102125.08
2019-04-11T07:03:57.483Z,102124.47
2019-04-11T07:04:56.540Z,102124.70
2019-04-11T07:05:58.043Z,102123.64
2019-04-11T07:06:58.536Z,102123.70
2019-04-11T07:07:59.933Z,102123.62
2019-04-11T07:08:59.131Z,102123.75
2019-04-11T07:10:02.150Z,102123.52
2019-04-11T07:11:00.845Z,102123.30
2019-04-11T07:12:01.388Z,102123.67
2019-04-11T07:13:01.886Z,102123.43
2019-04-11T07:14:04.124Z,102123.26
2019-04-11T07:15:04.401Z,102123.06
2019-04-11T07:16:04.708Z,102122.91
2019-04-11T07:17:07.425Z,102123.39
2019-04-11T07:18:07.457Z,102123.70
2019-04-11T07:19:05.347Z,102123.88
2019-04-11T07:20:06.856Z,102124.50
2019-04-11T07:21:08.506Z,102125.11
2019-04-11T07:22:07.012Z,102125.16
2019-04-11T07:23:08.617Z,102125.85
2019-04-11T07:24:09.111Z,102125.90
2019-04-11T07:25:10.351Z,102125.83
2019-04-11T07:26:10.149Z,102126.56
2019-04-11T07:27:09.569Z,102127.23
2019-04-11T07:28:10.051Z,102127.67
2019-04-11T07:29:10.463Z,102127.83
2019-04-11T07:30:12.115Z,102127.84
2019-04-11T07:31:12.875Z,102128.20
2019-04-11T07:32:13.436Z,102128.06
2019-04-11T07:33:12.814Z,102129.09
2019-04-11T07:34:14.794Z,102129.30
2019-04-11T07:35:15.626Z,102129.92
2019-04-11T07:36:14.958Z,102130.50
2019-04-11T07:37:16.857Z,102131.17
2019-04-11T07:38:16.319Z,102131.53
2019-04-11T07:39:17.116Z,102132.66
2019-04-11T07:40:18.557Z,102132.98
2019-04-11T07:41:19.532Z,102132.98
2019-04-11T07:42:18.705Z,102133.58
2019-04-11T07:43:20.334Z,102134.33
2019-04-11T07:44:21.848Z,102134.74
2019-04-11T07:45:20.958Z,102135.58
2019-04-11T07:46:20.699Z,102135.70
2019-04-11T07:47:25.255Z,102136.03
2019-04-11T07:48:21.672Z,102136.33
2019-04-11T07:49:24.466Z,102136.42
2019-04-11T07:50:23.159Z,102136.70
2019-04-11T07:51:23.466Z,102136.94
2019-04-11T07:52:25.050Z,102137.17
2019-04-11T07:53:26.254Z,102137.94
2019-04-11T07:54:25.905Z,102138.22
2019-04-11T07:55:25.832Z,102138.02
2019-04-11T07:56:27.316Z,102138.38
2019-04-11T07:57:26.880Z,102138.39
2019-04-11T07:58:28.625Z,102138.67
2019-04-11T07:59:27.905Z,102139.08
2019-04-11T08:00:38.534Z,102138.34
2019-04-11T08:01:29.453Z,102138.27
2019-04-11T08:02:29.667Z,102138.94
2019-04-11T08:03:32.071Z,102139.10
2019-04-11T08:04:31.950Z,102138.61
2019-04-11T08:05:32.349Z,102139.45
2019-04-11T08:06:33.080Z,102139.61
2019-04-11T08:07:32.779Z,102140.19
2019-04-11T08:08:34.438Z,102140.76
2019-04-11T08:09:33.868Z,102141.32
2019-04-11T08:10:35.434Z,102141.53
2019-04-11T08:11:35.941Z,102141.52
2019-04-11T08:12:35.600Z,102141.45
2019-04-11T08:13:38.619Z,102141.47
2019-04-11T08:14:37.075Z,102141.23
2019-04-11T08:15:37.763Z,102141.66
2019-04-11T08:16:39.174Z,102141.58
2019-04-11T08:17:42.296Z,102141.63
2019-04-11T08:18:39.356Z,102141.06
2019-04-11T08:19:41.152Z,102141.23
2019-04-11T08:19:49.766Z,102146.13
2019-04-11T08:20:51.244Z,102145.61
2019-04-11T08:21:52.566Z,102145.02
2019-04-11T08:22:51.762Z,102145.05
2019-04-11T08:23:52.323Z,102144.63
2019-04-11T08:24:53.718Z,102144.63
2019-04-11T08:25:54.195Z,102144.27
2019-04-11T08:26:55.446Z,102144.65
2019-04-11T08:28:00.225Z,102144.19
2019-04-11T08:29:05.555Z,102144.59
2019-04-11T08:29:55.698Z,102144.36
2019-04-11T08:30:57.356Z,102144.66
2019-04-11T08:31:57.629Z,102145.61
2019-04-11T08:32:56.655Z,102145.89
2019-04-11T08:33:59.276Z,102146.70
2019-04-11T08:34:57.909Z,102147.16
2019-04-11T08:35:59.770Z,102147.25
2019-04-11T08:36:59.025Z,102148.05
2019-04-11T08:38:00.962Z,102148.09
2019-04-11T08:39:00.573Z,102148.30
2019-04-11T08:40:00.221Z,102148.39
2019-04-11T08:41:02.966Z,102148.68
2019-04-11T08:42:01.469Z,102149.23
2019-04-11T08:43:02.859Z,102149.56
2019-04-11T08:44:03.681Z,102150.05
2019-04-11T08:45:03.999Z,102151.59
2019-04-11T08:46:04.606Z,102152.36
2019-04-11T08:47:04.489Z,102152.70
2019-04-11T08:48:04.959Z,102153.47
2019-04-11T08:49:07.620Z,102153.91
2019-04-11T08:50:06.127Z,102154.22
2019-04-11T08:51:08.011Z,102154.49
2019-04-11T08:52:07.609Z,102155.23
2019-04-11T08:53:08.720Z,102156.51
2019-04-11T08:54:09.130Z,102157.56
2019-04-11T08:55:10.288Z,102158.63
2019-04-11T08:56:10.583Z,102159.67
2019-04-11T08:57:11.692Z,102160.00
2019-04-11T08:58:12.067Z,102160.41
2019-04-11T08:59:11.697Z,102160.62
2019-04-11T09:00:13.739Z,102160.19
2019-04-11T09:01:13.719Z,102160.62
2019-04-11T09:02:12.841Z,102160.89
2019-04-11T09:03:15.598Z,102162.11
2019-04-11T09:04:15.270Z,102162.73
2019-04-11T09:05:18.006Z,102162.95
2019-04-11T09:06:16.622Z,102163.06
2019-04-11T09:07:17.014Z,102163.01
2019-04-11T09:08:16.947Z,102162.68
2019-04-11T09:09:18.836Z,102163.11
2019-04-11T09:10:18.022Z,102162.57
2019-04-11T09:11:18.698Z,102162.83
2019-04-11T09:12:20.704Z,102162.91
2019-04-11T09:13:20.178Z,102163.34
2019-04-11T09:14:22.197Z,102163.42
2019-04-11T09:15:21.237Z,102163.77
2019-04-11T09:16:23.680Z,102163.73
2019-04-11T09:17:23.392Z,102163.39
2019-04-11T09:18:23.140Z,102162.37
2019-04-11T09:19:25.128Z,102162.58
2019-04-11T09:20:24.300Z,102161.53
2019-04-11T09:21:24.791Z,102161.10
2019-04-11T09:22:26.586Z,102160.91
2019-04-11T09:23:25.944Z,102160.40
2019-04-11T09:24:26.304Z,102160.34
2019-04-11T09:25:27.429Z,102159.72
2019-04-11T09:26:27.693Z,102158.95
2019-04-11T09:27:27.315Z,102158.95
2019-04-11T09:28:29.207Z,102159.21
2019-04-11T09:29:28.350Z,102159.02
2019-04-11T09:30:28.588Z,102158.34
2019-04-11T09:31:29.629Z,102158.67
2019-04-11T09:32:29.502Z,102157.63
2019-04-11T09:33:31.217Z,102157.02
2019-04-11T09:34:31.869Z,102156.19
2019-04-11T09:35:33.377Z,102156.02
2019-04-11T09:36:32.384Z,102155.84
2019-04-11T09:37:33.819Z,102155.71
2019-04-11T09:38:34.770Z,102154.87
2019-04-11T09:39:35.085Z,102153.81
2019-04-11T09:40:36.212Z,102153.31
2019-04-11T09:41:36.520Z,102153.36
2019-04-11T09:42:36.597Z,102153.39
2019-04-11T09:43:36.877Z,102153.44
2019-04-11T09:44:39.293Z,102153.50
2019-04-11T09:45:38.181Z,102153.58
2019-04-11T09:46:40.756Z,102153.52
2019-04-11T09:47:40.353Z,102154.03
2019-04-11T09:48:40.120Z,102153.27
2019-04-11T09:49:40.694Z,102152.99
2019-04-11T09:50:42.718Z,102152.14
2019-04-11T09:51:42.343Z,102150.91
2019-04-11T09:52:43.181Z,102150.68
2019-04-11T09:53:43.398Z,102150.77
2019-04-11T09:53:52.904Z,102149.11
2019-04-11T09:54:52.647Z,102148.72
2019-04-11T09:55:53.707Z,102148.34
2019-04-11T09:56:54.058Z,102148.06
2019-04-11T09:57:54.673Z,102147.64
2019-04-11T09:58:54.664Z,102147.53
2019-04-11T09:59:56.397Z,102147.39
2019-04-11T10:00:57.218Z,102147.19
2019-04-11T10:01:56.731Z,102147.19
2019-04-11T10:02:58.698Z,102146.20
2019-04-11T10:03:59.263Z,102145.18
2019-04-11T10:05:01.399Z,102143.94
2019-04-11T10:05:59.656Z,102143.28
2019-04-11T10:06:59.711Z,102143.28
2019-04-11T10:08:02.187Z,102142.63
2019-04-11T10:09:01.822Z,102141.84
2019-04-11T10:10:02.571Z,102141.27
2019-04-11T10:11:02.269Z,102139.91
2019-04-11T10:12:04.519Z,102139.28
2019-04-11T10:13:04.638Z,102138.37
2019-04-11T10:14:05.155Z,102137.47
2019-04-11T10:15:05.461Z,102136.22
2019-04-11T10:16:07.532Z,102135.48
2019-04-11T10:17:06.758Z,102134.75
2019-04-11T10:18:19.523Z,102134.41
2019-04-11T10:19:07.729Z,102134.09
2019-04-11T10:20:10.609Z,102134.14
2019-04-11T10:21:09.038Z,102134.34
2019-04-11T10:22:10.943Z,102134.00
2019-04-11T10:23:10.547Z,102134.05
2019-04-11T10:24:15.799Z,102133.85
2019-04-11T10:25:12.796Z,102133.85
2019-04-11T10:26:13.816Z,102133.68
2019-04-11T10:27:14.223Z,102133.80
2019-04-11T10:28:13.846Z,102133.03
2019-04-11T10:29:15.830Z,102132.67
2019-04-11T10:30:17.377Z,102133.04
2019-04-11T10:31:16.249Z,102132.93
2019-04-11T10:32:19.150Z,102132.82
2019-04-11T10:33:17.747Z,102132.66
2019-04-11T10:34:19.694Z,102133.23
2019-04-11T10:35:20.094Z,102132.52
2019-04-11T10:36:19.154Z,102132.73
2019-04-11T10:37:20.011Z,102132.41
2019-04-11T10:38:20.385Z,102131.94
2019-04-11T10:39:21.489Z,102132.14
2019-04-11T10:40:21.601Z,102131.20
2019-04-11T10:41:23.004Z,102131.12
2019-04-11T10:42:22.217Z,102131.13
2019-04-11T10:43:22.761Z,102131.55
2019-04-11T10:44:25.615Z,102131.75
2019-04-11T10:45:24.906Z,102131.25
2019-04-11T10:46:25.176Z,102131.19
2019-04-11T10:47:25.158Z,102130.72
2019-04-11T10:48:34.599Z,102129.61
2019-04-11T10:49:26.340Z,102129.90
2019-04-11T10:50:26.836Z,102129.84
2019-04-11T10:51:29.548Z,102130.09
2019-04-11T10:52:28.790Z,102130.52
2019-04-11T10:53:28.416Z,102130.86
2019-04-11T10:54:30.976Z,102131.00
2019-04-11T10:55:29.866Z,102130.55
2019-04-11T10:56:32.563Z,102130.80
2019-04-11T10:57:31.961Z,102130.55
2019-04-11T10:58:31.533Z,102130.49
2019-04-11T10:59:34.362Z,102130.49
2019-04-11T11:00:33.482Z,102130.44
2019-04-11T11:01:33.824Z,102130.77
2019-04-11T11:02:33.726Z,102130.41
2019-04-11T11:03:34.153Z,102129.98
2019-04-11T11:04:34.831Z,102129.36
2019-04-11T11:05:35.202Z,102129.11
2019-04-11T11:06:37.929Z,102128.66
2019-04-11T11:07:37.067Z,102128.43
2019-04-11T11:08:37.630Z,102128.06
2019-04-11T11:09:38.825Z,102127.12
2019-04-11T11:10:37.589Z,102126.25
2019-04-11T11:11:39.395Z,102125.91
2019-04-11T11:12:39.975Z,102125.34
2019-04-11T11:13:40.841Z,102124.61
2019-04-11T11:14:40.069Z,102123.81
2019-04-11T11:15:41.895Z,102122.97
2019-04-11T11:16:44.466Z,102122.37
2019-04-11T11:18:00.917Z,102121.20
2019-04-11T11:19:15.609Z,102120.69
2019-04-11T11:19:55.245Z,102120.80
2019-04-11T11:20:48.907Z,102119.89
2019-04-11T11:21:43.672Z,102119.16
2019-04-11T11:22:46.148Z,102118.16
2019-04-11T11:23:45.001Z,102117.70
2019-04-11T11:24:46.306Z,102117.23
2019-04-11T11:25:48.516Z,102117.97
2019-04-11T11:26:45.982Z,102117.63
2019-04-11T11:27:48.025Z,102117.29